Terminal Aerodrome Forecast
Issued by NWS

Home | Current Version | Previous Version | Text Only | Print | Product List | Glossary On
Versions: 1 2 3 4 5 6 7 8 9 10 11 12 13 14 15 16 17 18 19 20 21 22 23
885
FTUS46 KMFR 240017 AAA
TAFOTH
TAF AMD
KOTH 240017Z 2400/2424 25009KT 6SM -SHRA SCT010 OVC025
      TEMPO 2400/2403 3SM -RA BR BKN009 OVC023
     FM240300 VRB03KT P6SM SCT010 BKN025
     FM240800 14005KT 4SM BR OVC008
     FM241800 VRB03KT P6SM SCT010 BKN050
     FM242100 24008KT P6SM BKN050=

USA.gov is the U.S. government's official web portal to all federal, state and local government web resources and services.